createdAt,value
2019-01-21T00:03:14.128Z,69.90
2019-01-21T00:07:27.990Z,70.00
2019-01-21T00:11:46.722Z,70.70
2019-01-21T00:16:05.474Z,69.80
2019-01-21T00:20:24.046Z,69.60
2019-01-21T00:24:42.133Z,69.70
2019-01-21T00:29:00.305Z,69.60
2019-01-21T00:33:18.524Z,69.60
2019-01-21T00:37:36.720Z,69.40
2019-01-21T00:41:54.964Z,69.40
2019-01-21T00:46:13.598Z,69.50
2019-01-21T00:50:31.913Z,69.40
2019-01-21T00:54:51.170Z,69.50
2019-01-21T00:59:09.498Z,69.50
2019-01-21T01:03:27.528Z,69.60
2019-01-21T01:07:46.300Z,69.70
2019-01-21T01:12:04.592Z,69.70
2019-01-21T01:16:22.765Z,69.70
2019-01-21T01:20:41.378Z,69.80
2019-01-21T01:25:00.341Z,69.80
2019-01-21T01:29:18.402Z,69.70
2019-01-21T01:33:36.945Z,69.80
2019-01-21T01:37:55.123Z,69.70
2019-01-21T01:42:13.189Z,69.80
2019-01-21T01:46:31.518Z,69.80
2019-01-21T01:50:50.254Z,70.00
2019-01-21T01:55:09.592Z,69.80
2019-01-21T01:59:27.994Z,69.90
2019-01-21T02:03:46.146Z,69.90
2019-01-21T02:08:04.279Z,69.70
2019-01-21T02:12:22.885Z,69.60
2019-01-21T02:16:41.233Z,69.30
2019-01-21T02:21:03.994Z,68.90
2019-01-21T02:25:27.629Z,68.30
2019-01-21T02:30:21.905Z,68.20
2019-01-21T02:35:17.317Z,68.10
2019-01-21T02:40:44.489Z,68.00
2019-01-21T02:45:55.449Z,67.90
2019-01-21T02:51:21.742Z,67.90
2019-01-21T02:56:40.679Z,67.80
2019-01-21T03:01:44.814Z,67.50
2019-01-21T03:07:27.351Z,67.60
2019-01-21T03:12:30.740Z,67.60
2019-01-21T03:18:07.942Z,67.60
2019-01-21T03:23:16.742Z,67.80
2019-01-21T03:28:38.268Z,67.70
2019-01-21T03:33:35.798Z,67.30
2019-01-21T03:38:57.410Z,67.30
2019-01-21T03:44:15.166Z,67.40
2019-01-21T03:48:54.997Z,67.30
2019-01-21T03:54:21.258Z,67.60
2019-01-21T03:59:04.050Z,67.40
2019-01-21T04:04:49.810Z,67.50
2019-01-21T04:09:51.930Z,67.40
2019-01-21T04:14:54.863Z,67.50
2019-01-21T04:20:09.335Z,67.50
2019-01-21T04:25:21.365Z,67.50
2019-01-21T04:30:38.678Z,67.40
2019-01-21T04:35:52.455Z,67.20
2019-01-21T04:40:58.359Z,67.20
2019-01-21T04:46:13.829Z,67.30
2019-01-21T04:51:14.957Z,67.20
2019-01-21T04:56:26.917Z,67.20
2019-01-21T05:01:37.165Z,67.20
2019-01-21T05:07:14.452Z,67.30
2019-01-21T05:12:30.470Z,67.10
2019-01-21T05:17:19.120Z,67.30
2019-01-21T05:23:03.593Z,67.90
2019-01-21T05:28:39.617Z,67.20
2019-01-21T05:33:54.439Z,67.40
2019-01-21T05:38:57.799Z,67.20
2019-01-21T05:44:22.979Z,67.00
2019-01-21T05:49:31.977Z,67.00
2019-01-21T05:54:56.487Z,67.10
2019-01-21T06:00:27.538Z,67.20
2019-01-21T06:05:19.110Z,67.20
2019-01-21T06:10:16.926Z,67.20
2019-01-21T06:15:44.100Z,67.30
2019-01-21T06:20:31.325Z,67.40
2019-01-21T06:25:46.971Z,67.30
2019-01-21T06:30:59.873Z,67.00
2019-01-21T06:36:04.982Z,67.00
2019-01-21T06:41:06.624Z,66.90
2019-01-21T06:46:33.107Z,67.00
2019-01-21T06:51:35.066Z,67.00
2019-01-21T06:56:53.422Z,67.00
2019-01-21T07:01:51.607Z,67.00
2019-01-21T07:07:11.558Z,66.90
2019-01-21T07:12:07.256Z,67.70
2019-01-21T07:17:49.540Z,67.60
2019-01-21T07:22:48.957Z,66.90
2019-01-21T07:27:51.517Z,67.00
2019-01-21T07:33:11.694Z,67.00
2019-01-21T07:38:07.163Z,66.90
2019-01-21T07:43:00.465Z,67.30
2019-01-21T07:48:30.512Z,67.30
2019-01-21T07:53:57.626Z,67.30
2019-01-21T07:59:21.311Z,67.40
2019-01-21T08:05:13.010Z,67.60
2019-01-21T08:10:19.296Z,67.90
2019-01-21T08:15:37.928Z,68.20
2019-01-21T08:20:48.563Z,68.30
2019-01-21T08:25:44.799Z,68.50
2019-01-21T08:31:00.356Z,68.60
2019-01-21T08:36:05.897Z,68.50
2019-01-21T08:41:36.620Z,68.80
2019-01-21T08:47:12.889Z,69.20
2019-01-21T08:52:28.823Z,69.50
2019-01-21T08:57:51.644Z,69.50
2019-01-21T09:03:01.148Z,69.50
2019-01-21T09:08:23.114Z,69.40
2019-01-21T09:13:24.927Z,69.50
2019-01-21T09:18:38.736Z,69.40
2019-01-21T09:24:03.267Z,69.10
2019-01-21T09:29:16.416Z,69.30
2019-01-21T09:34:13.181Z,68.80
2019-01-21T09:39:40.371Z,69.20
2019-01-21T09:44:59.526Z,69.50
2019-01-21T09:49:15.114Z,69.50
2019-01-21T09:53:34.043Z,69.50
2019-01-21T09:58:07.478Z,69.40
2019-01-21T10:02:45.947Z,69.20
2019-01-21T10:07:31.626Z,69.30
2019-01-21T10:13:07.066Z,69.30
2019-01-21T10:18:07.951Z,69.60
2019-01-21T10:23:18.656Z,69.90
2019-01-21T10:28:42.339Z,69.40
2019-01-21T10:34:03.960Z,69.30
2019-01-21T10:39:08.367Z,69.80
2019-01-21T10:44:19.121Z,69.90
2019-01-21T10:49:16.896Z,69.80
2019-01-21T10:54:50.046Z,71.70
2019-01-21T11:00:17.656Z,77.70
2019-01-21T11:05:08.483Z,81.10
2019-01-21T11:10:06.267Z,84.50
2019-01-21T11:15:03.621Z,84.80
2019-01-21T11:20:35.660Z,84.10
2019-01-21T11:25:48.911Z,82.30
2019-01-21T11:31:01.830Z,75.00
2019-01-21T11:36:32.301Z,67.40
2019-01-21T11:41:21.977Z,64.30
2019-01-21T11:46:43.494Z,63.40
2019-01-21T11:51:58.043Z,64.00
2019-01-21T11:56:58.734Z,64.80
2019-01-21T12:02:15.874Z,65.50
2019-01-21T12:07:07.720Z,65.70
2019-01-21T12:12:00.924Z,66.40
2019-01-21T12:17:21.447Z,67.10
2019-01-21T12:22:47.611Z,67.70
2019-01-21T12:28:23.170Z,68.60
2019-01-21T12:33:30.532Z,68.80
2019-01-21T12:38:34.169Z,69.40
2019-01-21T12:43:37.707Z,69.20
2019-01-21T12:48:51.094Z,69.50
2019-01-21T12:53:56.762Z,69.70
2019-01-21T12:59:05.662Z,70.00
2019-01-21T13:04:13.552Z,70.20
2019-01-21T13:09:03.957Z,70.50
2019-01-21T13:14:18.219Z,70.80
2019-01-21T13:19:42.871Z,70.60
2019-01-21T13:25:00.557Z,71.20
2019-01-21T13:30:26.336Z,71.40
2019-01-21T13:35:30.335Z,70.60
2019-01-21T13:40:59.604Z,70.70
2019-01-21T13:46:07.145Z,71.00
2019-01-21T13:51:30.160Z,70.80
2019-01-21T13:56:47.807Z,70.80
2019-01-21T14:01:38.826Z,71.60
2019-01-21T14:07:15.501Z,70.80
2019-01-21T14:11:57.581Z,69.60
2019-01-21T14:17:12.861Z,70.10
2019-01-21T14:22:04.740Z,70.70
2019-01-21T14:27:23.423Z,70.70
2019-01-21T14:32:54.517Z,70.60
2019-01-21T14:37:45.296Z,71.00
2019-01-21T14:42:53.353Z,70.00
2019-01-21T14:47:55.898Z,70.00
2019-01-21T14:53:08.487Z,69.90
2019-01-21T14:58:09.985Z,69.70
2019-01-21T15:03:46.816Z,69.50
2019-01-21T15:08:46.021Z,70.20
2019-01-21T15:13:59.628Z,69.20
2019-01-21T15:19:02.222Z,69.10
2019-01-21T15:24:00.947Z,68.80
2019-01-21T15:28:57.561Z,68.90
2019-01-21T15:33:48.762Z,68.90
2019-01-21T15:39:12.884Z,68.70
2019-01-21T15:44:14.993Z,68.40
2019-01-21T15:49:18.925Z,68.40
2019-01-21T15:54:35.202Z,68.00
2019-01-21T16:00:07.583Z,68.00
2019-01-21T16:04:59.240Z,68.10
2019-01-21T16:10:28.305Z,68.00
2019-01-21T16:15:00.834Z,67.90
2019-01-21T16:19:38.296Z,68.00
2019-01-21T16:24:42.771Z,68.00
2019-01-21T16:30:09.955Z,68.10
2019-01-21T16:35:52.292Z,67.90
2019-01-21T16:41:09.127Z,68.00
2019-01-21T16:45:27.467Z,67.80
2019-01-21T16:49:46.102Z,68.10
2019-01-21T16:54:04.512Z,68.50
2019-01-21T16:58:22.894Z,69.10
2019-01-21T17:02:41.101Z,69.30
2019-01-21T17:06:59.672Z,69.90
2019-01-21T17:11:17.953Z,70.00
2019-01-21T17:15:36.692Z,69.90
2019-01-21T17:19:55.060Z,69.50
2019-01-21T17:24:13.667Z,69.00
2019-01-21T17:28:32.323Z,68.80
2019-01-21T17:32:50.528Z,68.70
2019-01-21T17:37:10.057Z,69.40
2019-01-21T17:41:28.363Z,68.70
2019-01-21T17:45:47.021Z,69.30
2019-01-21T17:50:06.780Z,69.30
2019-01-21T17:54:25.220Z,69.50
2019-01-21T17:58:43.690Z,69.70
2019-01-21T18:03:02.567Z,69.50
2019-01-21T18:07:21.918Z,69.30
2019-01-21T18:11:41.470Z,68.90
2019-01-21T18:16:01.294Z,68.70
2019-01-21T18:20:25.464Z,68.40
2019-01-21T18:24:44.056Z,68.10
2019-01-21T18:29:02.363Z,68.40
2019-01-21T18:33:20.715Z,68.20
2019-01-21T18:37:39.351Z,68.30
2019-01-21T18:41:57.893Z,68.50
2019-01-21T18:46:16.227Z,68.60
2019-01-21T18:50:34.805Z,68.70
2019-01-21T18:54:53.246Z,68.90
2019-01-21T18:59:12.445Z,69.20
2019-01-21T19:03:30.892Z,69.50
2019-01-21T19:07:51.097Z,69.60
2019-01-21T19:12:09.253Z,69.60
2019-01-21T19:16:27.748Z,69.80
2019-01-21T19:20:46.057Z,69.70
2019-01-21T19:25:05.413Z,69.70
2019-01-21T19:29:24.726Z,69.80
2019-01-21T19:33:43.425Z,69.90
2019-01-21T19:38:04.680Z,70.10
2019-01-21T19:42:23.349Z,70.20
2019-01-21T19:46:45.300Z,71.00
2019-01-21T19:51:03.908Z,70.30
2019-01-21T19:55:30.005Z,70.20
2019-01-21T19:59:48.494Z,70.20
2019-01-21T20:04:08.414Z,70.20
2019-01-21T20:08:26.806Z,70.10
2019-01-21T20:12:45.471Z,69.80
2019-01-21T20:17:06.475Z,69.80
2019-01-21T20:21:25.738Z,69.80
2019-01-21T20:25:44.103Z,69.70
2019-01-21T20:30:02.732Z,69.50
2019-01-21T20:34:22.628Z,69.10
2019-01-21T20:38:41.097Z,69.10
2019-01-21T20:43:02.616Z,69.00
2019-01-21T20:47:22.845Z,68.40
2019-01-21T20:51:41.682Z,68.50
2019-01-21T20:56:00.389Z,68.50
2019-01-21T21:00:27.481Z,68.60
2019-01-21T21:04:45.605Z,68.60
2019-01-21T21:09:07.714Z,68.80
2019-01-21T21:13:26.051Z,68.90
2019-01-21T21:17:44.535Z,69.00
2019-01-21T21:22:02.758Z,69.20
2019-01-21T21:26:20.943Z,69.30
2019-01-21T21:30:40.460Z,69.30
2019-01-21T21:34:59.046Z,69.30
2019-01-21T21:39:17.270Z,68.90
2019-01-21T21:43:35.510Z,68.50
2019-01-21T21:47:53.630Z,68.20
2019-01-21T21:52:12.715Z,67.80
2019-01-21T21:56:31.117Z,67.80
2019-01-21T22:00:49.566Z,67.90
2019-01-21T22:05:08.935Z,68.00
2019-01-21T22:09:27.068Z,68.30
2019-01-21T22:13:45.878Z,68.30
2019-01-21T22:18:04.171Z,68.40
2019-01-21T22:22:22.374Z,68.40
2019-01-21T22:26:42.230Z,68.20
2019-01-21T22:31:00.453Z,68.00
2019-01-21T22:35:19.101Z,67.90
2019-01-21T22:39:37.766Z,67.60
2019-01-21T22:43:56.115Z,67.30
2019-01-21T22:48:14.316Z,67.10
2019-01-21T22:52:32.742Z,67.10
2019-01-21T22:56:50.948Z,67.10
2019-01-21T23:01:36.177Z,66.80
2019-01-21T23:05:54.735Z,66.80
2019-01-21T23:10:13.033Z,66.70
2019-01-21T23:14:31.558Z,66.60
2019-01-21T23:18:50.736Z,66.60
2019-01-21T23:23:09.096Z,66.60
2019-01-21T23:27:27.253Z,66.50
2019-01-21T23:31:45.747Z,66.40
2019-01-21T23:36:04.027Z,66.50
2019-01-21T23:40:22.344Z,66.30
2019-01-21T23:44:40.429Z,66.40
2019-01-21T23:48:58.662Z,66.50
2019-01-21T23:53:16.735Z,66.70
2019-01-21T23:57:34.903Z,66.70
